createdAt,value
2017-07-31T06:20:05.652Z,26.10
2017-07-31T06:22:33.807Z,26.10
2017-07-31T06:25:01.956Z,26.30
2017-07-31T06:27:30.859Z,27.00
2017-07-31T06:29:59.828Z,27.20
2017-07-31T06:32:27.980Z,27.20
2017-07-31T06:34:56.159Z,27.40
2017-07-31T06:37:24.319Z,27.60
2017-07-31T06:39:52.503Z,27.70
2017-07-31T06:42:20.649Z,27.90
2017-07-31T06:44:48.866Z,27.90
2017-07-31T06:47:17.011Z,28.00
2017-07-31T06:49:45.165Z,28.10
2017-07-31T06:52:13.416Z,28.20
2017-07-31T06:54:42.377Z,28.30
2017-07-31T06:57:10.546Z,28.30
2017-07-31T06:59:38.679Z,28.40
2017-07-31T07:02:06.820Z,28.40
2017-07-31T07:04:34.968Z,28.50
2017-07-31T07:07:03.180Z,28.50
2017-07-31T07:09:31.316Z,28.60
2017-07-31T07:11:59.517Z,28.60
2017-07-31T07:14:27.676Z,28.60
2017-07-31T07:16:55.800Z,28.60
2017-07-31T07:19:23.971Z,28.70
2017-07-31T07:21:52.871Z,28.70
2017-07-31T07:24:21.017Z,28.70
2017-07-31T07:26:49.190Z,28.70
2017-07-31T07:29:17.331Z,28.70
2017-07-31T07:31:45.463Z,28.70
2017-07-31T07:34:13.635Z,28.70
2017-07-31T07:36:42.357Z,28.80
2017-07-31T07:41:44.408Z,28.70
2017-07-31T07:44:12.816Z,28.80
2017-07-31T07:46:40.983Z,28.80
2017-07-31T07:49:09.177Z,28.80
2017-07-31T07:51:37.320Z,28.80
2017-07-31T07:54:06.097Z,28.80
2017-07-31T07:56:34.292Z,28.80
2017-07-31T07:59:02.876Z,28.80
2017-07-31T08:01:31.048Z,28.80
2017-07-31T08:04:04.561Z,28.80
2017-07-31T08:06:32.727Z,28.80
2017-07-31T08:09:00.869Z,28.80
2017-07-31T08:11:30.272Z,28.80
2017-07-31T08:13:59.284Z,28.80
2017-07-31T08:16:28.167Z,28.80
2017-07-31T08:18:57.191Z,28.80
2017-07-31T08:21:25.341Z,28.80
2017-07-31T08:23:54.236Z,28.90
2017-07-31T08:26:22.403Z,28.80
2017-07-31T08:28:50.628Z,28.80
2017-07-31T08:31:18.773Z,28.90
2017-07-31T08:33:46.908Z,28.90
2017-07-31T08:36:15.049Z,29.00
2017-07-31T08:38:44.175Z,29.00
2017-07-31T08:41:12.340Z,29.00
2017-07-31T08:43:40.472Z,29.00
2017-07-31T08:46:08.624Z,29.10
2017-07-31T08:48:37.780Z,29.10
2017-07-31T08:51:06.033Z,29.10
2017-07-31T08:53:34.576Z,29.20
2017-07-31T08:56:02.737Z,29.20
2017-07-31T08:58:31.587Z,29.20
2017-07-31T09:00:59.748Z,29.20
2017-07-31T09:03:27.902Z,29.30
2017-07-31T09:05:56.036Z,29.30
2017-07-31T09:08:24.208Z,29.30
2017-07-31T09:10:52.360Z,29.30
2017-07-31T09:13:20.528Z,29.40
2017-07-31T09:15:48.687Z,29.40
2017-07-31T09:18:16.820Z,29.50
2017-07-31T09:20:44.973Z,29.50
2017-07-31T09:23:13.216Z,29.50
2017-07-31T09:25:41.400Z,29.50
2017-07-31T09:28:15.003Z,29.60
2017-07-31T09:30:43.152Z,29.60
2017-07-31T09:33:11.427Z,29.60
2017-07-31T09:35:39.556Z,29.70
2017-07-31T09:38:07.727Z,29.70
2017-07-31T09:40:35.875Z,29.70
2017-07-31T09:43:04.066Z,29.80
2017-07-31T09:45:32.243Z,29.80
2017-07-31T09:48:00.381Z,29.90
2017-07-31T09:50:28.515Z,29.90
2017-07-31T09:52:57.004Z,30.00
2017-07-31T09:55:25.152Z,30.10
2017-07-31T09:57:53.280Z,30.10
2017-07-31T10:00:21.432Z,30.20
2017-07-31T10:02:49.635Z,30.20
2017-07-31T10:05:18.521Z,30.40
2017-07-31T10:07:47.854Z,30.40
2017-07-31T10:10:16.017Z,30.40
2017-07-31T10:12:44.216Z,30.50
2017-07-31T10:15:12.325Z,30.50
2017-07-31T10:17:41.275Z,30.60
2017-07-31T10:20:09.427Z,30.50
2017-07-31T10:22:37.546Z,30.60
2017-07-31T10:25:05.697Z,30.60
2017-07-31T10:27:33.829Z,30.60
2017-07-31T10:30:01.969Z,30.70
2017-07-31T10:32:30.120Z,30.70
2017-07-31T10:34:58.314Z,30.80
2017-07-31T10:37:26.449Z,30.80
2017-07-31T10:39:54.561Z,30.90
2017-07-31T10:42:22.676Z,30.90
2017-07-31T10:44:51.684Z,31.00
2017-07-31T10:47:19.820Z,31.00
2017-07-31T10:49:48.928Z,31.10
2017-07-31T10:52:17.405Z,31.10
2017-07-31T10:54:45.592Z,31.20
2017-07-31T10:57:14.544Z,31.50
2017-07-31T10:59:42.678Z,31.50
2017-07-31T11:02:10.840Z,31.70
2017-07-31T11:04:44.682Z,32.00
2017-07-31T11:07:13.058Z,32.00
2017-07-31T11:09:41.201Z,32.20
2017-07-31T11:12:10.178Z,32.40
2017-07-31T11:14:38.306Z,32.40
2017-07-31T11:17:06.437Z,32.50
2017-07-31T11:19:35.340Z,32.80
2017-07-31T11:22:03.496Z,32.80
2017-07-31T11:24:31.663Z,32.90
2017-07-31T11:26:59.804Z,33.10
2017-07-31T11:29:28.317Z,33.20
2017-07-31T11:31:56.461Z,33.30
2017-07-31T11:34:24.620Z,33.40
2017-07-31T11:36:52.748Z,33.50
2017-07-31T11:39:20.987Z,33.60
2017-07-31T11:41:49.140Z,33.70
2017-07-31T11:44:17.256Z,33.70
2017-07-31T11:46:45.400Z,33.80
2017-07-31T11:49:13.548Z,33.80
2017-07-31T11:51:41.713Z,33.80
2017-07-31T11:54:09.866Z,33.80
2017-07-31T11:56:38.022Z,33.70
2017-07-31T11:59:06.216Z,33.80
2017-07-31T12:01:34.392Z,33.80
2017-07-31T12:04:02.501Z,33.90
2017-07-31T12:06:30.645Z,33.90
2017-07-31T12:08:58.835Z,34.00
2017-07-31T12:11:26.996Z,34.00
2017-07-31T12:13:55.141Z,34.10
2017-07-31T12:16:23.395Z,34.20
2017-07-31T12:18:51.529Z,34.30
2017-07-31T12:21:24.976Z,34.40
2017-07-31T12:23:53.087Z,34.50
2017-07-31T12:26:21.235Z,34.50
2017-07-31T12:28:49.364Z,34.60
2017-07-31T12:31:17.959Z,34.60
2017-07-31T12:33:46.279Z,34.70
2017-07-31T12:36:14.489Z,34.70
2017-07-31T12:38:43.384Z,34.80
2017-07-31T12:41:12.272Z,34.80
2017-07-31T12:43:40.496Z,34.80
2017-07-31T12:46:08.660Z,34.90
2017-07-31T12:48:36.780Z,34.90
2017-07-31T12:51:05.012Z,35.00
2017-07-31T12:53:33.194Z,35.10
2017-07-31T12:56:01.348Z,35.10
2017-07-31T12:58:29.475Z,35.20
2017-07-31T13:00:57.599Z,35.20
2017-07-31T13:03:25.744Z,35.20
2017-07-31T13:05:53.858Z,35.30
2017-07-31T13:08:22.048Z,35.40
2017-07-31T13:10:51.272Z,35.40
2017-07-31T13:13:19.509Z,35.50
2017-07-31T13:15:47.613Z,35.50
2017-07-31T13:18:15.828Z,35.60
2017-07-31T13:20:44.724Z,35.60
2017-07-31T13:23:12.868Z,35.60
2017-07-31T13:25:41.005Z,35.60
2017-07-31T13:28:09.148Z,35.70
2017-07-31T13:30:38.028Z,35.80
2017-07-31T13:33:07.061Z,35.80
2017-07-31T13:35:35.201Z,35.80
2017-07-31T13:38:04.129Z,35.90
2017-07-31T13:40:32.644Z,35.80
2017-07-31T13:43:00.768Z,35.90
2017-07-31T13:45:28.907Z,35.80
2017-07-31T13:47:57.094Z,35.70
2017-07-31T13:50:26.068Z,35.30
2017-07-31T13:52:54.208Z,35.30
2017-07-31T13:55:22.344Z,35.10
2017-07-31T13:57:51.247Z,34.90
2017-07-31T14:00:20.202Z,34.80
2017-07-31T14:02:48.348Z,34.80
2017-07-31T14:05:16.528Z,34.70
2017-07-31T14:07:44.679Z,34.60
2017-07-31T14:10:12.812Z,34.60
2017-07-31T14:12:41.961Z,34.70
2017-07-31T14:15:10.114Z,34.60
2017-07-31T14:17:38.280Z,34.70
2017-07-31T14:20:06.420Z,34.70
2017-07-31T14:22:34.564Z,34.60
2017-07-31T14:25:02.703Z,34.60
2017-07-31T14:27:30.903Z,34.60
2017-07-31T14:29:59.044Z,34.60
2017-07-31T14:32:27.253Z,34.60
2017-07-31T14:34:55.436Z,34.60
2017-07-31T14:37:23.605Z,34.60
2017-07-31T14:39:51.756Z,34.60
2017-07-31T14:42:19.928Z,34.60
2017-07-31T14:44:48.079Z,34.60
2017-07-31T14:47:16.208Z,34.50
2017-07-31T14:49:44.363Z,34.40
2017-07-31T14:52:12.495Z,34.40
2017-07-31T14:54:40.628Z,34.30
2017-07-31T14:57:08.768Z,34.20
2017-07-31T14:59:37.825Z,34.10
2017-07-31T15:02:05.953Z,34.00
2017-07-31T15:04:34.100Z,34.00
2017-07-31T15:07:02.253Z,33.90
2017-07-31T15:09:30.389Z,33.90
2017-07-31T15:11:58.528Z,33.80
2017-07-31T15:14:26.690Z,33.60
2017-07-31T15:16:54.864Z,33.60
2017-07-31T15:19:22.988Z,33.60
2017-07-31T15:21:51.144Z,33.60
2017-07-31T15:24:19.280Z,33.60
2017-07-31T15:26:47.748Z,33.50
2017-07-31T15:29:15.875Z,33.50
2017-07-31T15:31:44.020Z,33.40
2017-07-31T15:34:13.312Z,33.30
2017-07-31T15:36:41.460Z,33.30
2017-07-31T15:39:09.667Z,33.30
2017-07-31T15:41:37.784Z,33.20
2017-07-31T15:44:05.921Z,33.10
2017-07-31T15:46:34.052Z,33.10
2017-07-31T15:49:02.204Z,33.00
2017-07-31T15:51:30.338Z,32.90
2017-07-31T15:53:58.511Z,32.90
2017-07-31T15:56:26.640Z,32.80
2017-07-31T15:58:54.801Z,32.80
2017-07-31T16:01:22.913Z,32.80
2017-07-31T16:03:51.076Z,32.70
2017-07-31T16:06:19.219Z,32.70
2017-07-31T16:08:47.405Z,32.60
2017-07-31T16:11:15.535Z,32.60
2017-07-31T16:13:43.724Z,32.60
2017-07-31T16:16:12.654Z,32.40
2017-07-31T16:18:40.888Z,32.40
2017-07-31T16:21:09.788Z,32.30
2017-07-31T16:23:38.800Z,32.20
2017-07-31T16:26:06.928Z,32.20
2017-07-31T16:28:35.070Z,32.10
2017-07-31T16:31:03.207Z,32.10
2017-07-31T16:33:32.175Z,32.00
2017-07-31T16:36:01.244Z,32.00
2017-07-31T16:38:37.716Z,31.90
2017-07-31T16:41:06.144Z,31.80
2017-07-31T16:43:43.583Z,31.80
2017-07-31T16:46:20.764Z,31.70
2017-07-31T16:48:53.752Z,31.60
2017-07-31T16:51:21.991Z,31.50
2017-07-31T16:53:50.111Z,31.50
2017-07-31T16:56:18.224Z,31.40
2017-07-31T16:58:47.132Z,31.20
2017-07-31T17:01:16.775Z,31.20
2017-07-31T17:03:44.872Z,31.20
2017-07-31T17:06:13.008Z,31.20
2017-07-31T17:08:41.152Z,31.10
2017-07-31T17:11:10.044Z,31.00
2017-07-31T17:13:38.934Z,30.90
2017-07-31T17:16:07.068Z,30.90
2017-07-31T17:18:35.216Z,30.90
2017-07-31T17:21:03.363Z,30.80
2017-07-31T17:23:32.271Z,30.80
2017-07-31T17:26:00.389Z,30.80
2017-07-31T17:28:28.576Z,30.70
2017-07-31T17:30:56.753Z,30.70
2017-07-31T17:33:24.904Z,30.70
2017-07-31T17:35:53.045Z,30.60
2017-07-31T17:38:21.190Z,30.60
2017-07-31T17:40:49.368Z,30.60
2017-07-31T17:43:17.509Z,30.50
2017-07-31T17:45:45.643Z,30.50
2017-07-31T17:48:13.792Z,30.50
2017-07-31T17:50:42.692Z,30.40
2017-07-31T17:53:11.608Z,30.30
2017-07-31T17:55:39.752Z,30.30
2017-07-31T17:58:07.878Z,30.30
2017-07-31T18:00:36.496Z,30.20
2017-07-31T18:03:04.643Z,30.20
2017-07-31T18:05:32.772Z,30.10
2017-07-31T18:08:01.681Z,30.10
2017-07-31T18:10:29.916Z,30.10
2017-07-31T18:12:58.112Z,30.00
2017-07-31T18:15:27.028Z,29.90
2017-07-31T18:17:55.172Z,29.90
2017-07-31T18:20:28.927Z,29.90
2017-07-31T18:22:57.384Z,29.90
2017-07-31T18:25:25.501Z,29.90
2017-07-31T18:27:53.631Z,29.80
2017-07-31T18:30:21.783Z,29.80
2017-07-31T18:32:50.680Z,29.70
2017-07-31T18:35:19.576Z,29.70
2017-07-31T18:37:48.516Z,29.70
2017-07-31T18:40:16.657Z,29.70
2017-07-31T18:42:44.805Z,29.60
2017-07-31T18:45:12.921Z,29.60
2017-07-31T18:47:41.048Z,29.60
2017-07-31T18:50:09.204Z,29.50
2017-07-31T18:52:37.324Z,29.50
2017-07-31T18:55:05.516Z,29.50
2017-07-31T18:57:33.661Z,29.40
2017-07-31T19:00:02.621Z,29.40
2017-07-31T19:02:30.747Z,29.40
2017-07-31T19:04:58.883Z,29.30
2017-07-31T19:07:27.056Z,29.30
2017-07-31T19:09:55.279Z,29.30
2017-07-31T19:12:23.404Z,29.20
2017-07-31T19:14:51.547Z,29.20
2017-07-31T19:17:19.703Z,29.20
2017-07-31T19:19:47.848Z,29.20
2017-07-31T19:22:16.752Z,29.10
2017-07-31T19:24:44.875Z,29.10
2017-07-31T19:27:13.000Z,29.10
2017-07-31T19:29:41.927Z,29.00
2017-07-31T19:32:10.064Z,29.00
2017-07-31T19:34:38.984Z,29.00
2017-07-31T19:37:07.123Z,29.00
2017-07-31T19:39:36.033Z,28.90
2017-07-31T19:42:04.225Z,28.90
2017-07-31T19:44:32.376Z,28.80
2017-07-31T19:47:00.511Z,28.90
2017-07-31T19:49:28.649Z,28.80
2017-07-31T19:51:56.779Z,28.80
2017-07-31T19:54:24.917Z,28.80
2017-07-31T19:56:53.057Z,28.80
2017-07-31T19:59:21.203Z,28.80
2017-07-31T20:01:49.348Z,28.70
2017-07-31T20:04:17.496Z,28.70
2017-07-31T20:06:46.265Z,28.70
2017-07-31T20:09:14.423Z,28.70
2017-07-31T20:11:43.340Z,28.60
2017-07-31T20:14:11.506Z,28.60
2017-07-31T20:16:40.448Z,28.60
2017-07-31T20:19:08.575Z,28.60
2017-07-31T20:21:36.803Z,28.70
2017-07-31T20:24:04.935Z,28.60
2017-07-31T20:26:33.095Z,28.60
2017-07-31T20:29:01.236Z,28.60
2017-07-31T20:31:29.352Z,28.60
2017-07-31T20:33:57.483Z,28.60
2017-07-31T20:36:25.616Z,28.50
2017-07-31T20:38:53.744Z,28.50
2017-07-31T20:41:22.653Z,28.50
2017-07-31T20:43:51.552Z,28.50
2017-07-31T20:46:20.312Z,28.50
2017-07-31T20:48:48.456Z,28.50
2017-07-31T20:51:16.588Z,28.50
2017-07-31T20:53:44.740Z,28.40
2017-07-31T20:56:13.666Z,28.40
2017-07-31T20:58:41.788Z,28.40
2017-07-31T21:01:09.918Z,28.40
2017-07-31T21:03:38.444Z,28.40
2017-07-31T21:06:06.914Z,28.40
2017-07-31T21:08:35.496Z,28.30
2017-07-31T21:11:03.664Z,28.30
2017-07-31T21:13:31.784Z,28.30
2017-07-31T21:16:00.675Z,28.30
2017-07-31T21:18:29.576Z,28.30
2017-07-31T21:20:58.499Z,28.30
2017-07-31T21:23:26.624Z,28.30
2017-07-31T21:25:54.740Z,28.30
2017-07-31T21:28:22.884Z,28.30
2017-07-31T21:30:51.776Z,28.20
2017-07-31T21:33:20.697Z,28.30
2017-07-31T21:35:48.832Z,28.20
2017-07-31T21:38:16.976Z,28.30
2017-07-31T21:40:45.101Z,28.40
2017-07-31T21:43:14.025Z,28.40
2017-07-31T21:45:42.156Z,28.30
2017-07-31T21:48:11.076Z,28.40
2017-07-31T21:50:39.246Z,28.30
2017-07-31T21:53:07.408Z,28.30
2017-07-31T21:55:36.324Z,28.30
2017-07-31T21:58:04.487Z,28.30
2017-07-31T22:00:33.227Z,28.30
2017-07-31T22:03:01.359Z,28.30
2017-07-31T22:05:29.505Z,28.30
2017-07-31T22:07:58.417Z,28.30
2017-07-31T22:10:26.555Z,28.30
2017-07-31T22:12:54.741Z,28.30
2017-07-31T22:15:23.648Z,28.30
2017-07-31T22:17:56.036Z,28.30
2017-07-31T22:20:28.729Z,28.30
2017-07-31T22:22:56.898Z,28.30
2017-07-31T22:25:25.040Z,28.30
2017-07-31T22:27:53.970Z,28.20
2017-07-31T22:30:22.171Z,28.20
2017-07-31T22:32:50.327Z,28.20
2017-07-31T22:35:18.472Z,28.20
2017-07-31T22:37:46.620Z,28.20
2017-07-31T22:40:14.832Z,28.20
2017-07-31T22:42:43.011Z,28.20
2017-07-31T22:45:11.145Z,28.20
2017-07-31T22:47:39.300Z,28.20
2017-07-31T22:50:07.456Z,28.20
2017-07-31T22:52:35.587Z,28.10
2017-07-31T22:55:04.949Z,28.20
2017-07-31T22:57:33.091Z,28.10
2017-07-31T23:00:01.313Z,28.20
2017-07-31T23:02:29.446Z,28.10
2017-07-31T23:04:57.579Z,28.10
2017-07-31T23:07:26.548Z,28.10
2017-07-31T23:09:54.679Z,28.10
2017-07-31T23:12:22.808Z,28.10
2017-07-31T23:14:50.956Z,28.10
2017-07-31T23:17:19.160Z,28.00
2017-07-31T23:19:47.300Z,28.00
2017-07-31T23:22:15.449Z,28.00
2017-07-31T23:24:43.572Z,28.00
2017-07-31T23:27:11.712Z,28.00
2017-07-31T23:29:39.880Z,28.00
2017-07-31T23:32:08.063Z,28.00
2017-07-31T23:34:36.237Z,28.00
2017-07-31T23:37:04.370Z,28.00
2017-07-31T23:39:33.263Z,28.00
2017-07-31T23:42:02.153Z,27.90
2017-07-31T23:44:30.276Z,27.90
2017-07-31T23:46:58.412Z,27.90
2017-07-31T23:49:27.328Z,27.90
2017-07-31T23:51:55.480Z,27.80
2017-07-31T23:54:24.401Z,27.80
2017-07-31T23:56:52.531Z,27.80
2017-07-31T23:59:20.676Z,27.80
